Maryland AWOS List, Phone Numbers

USA |  
| Search AWOS

Rocky Mountain States: Montana | Wyoming | Colorado | New Mexico

Complete weather reports: Maryland

Legend: KFNL = METAR available Follow your local AWOS on AV Mobile = METAR available on AV Mobile
Station Maryland Location Frequency Phone
KAPGFAA ID APG, KAPG 050055Z 00000KT 1/4SM -RA FG VV001 03/02 A2991 Follow KAPG on AV Mobile Phillips Army Air Field / Aberdeen
K61WICAO ID K61W Annapolis Coast Guard Station
KNAKICAO ID KNAK, KNAK 060754Z AUTO 33012KT 10SM CLR M07/M13 A3048 RMK AO2 SLP322 T10671128 Follow KNAK on AV Mobile ANNAPOLIS US NAVAL ACADEMY
KLWXICAO ID KLWX Baltimore / DC Nexrad
KDMHICAO ID KDMH, KDMH 060754Z AUTO M08/M16 A3050 RMK AO1 SLP327 T10781156 Follow KDMH on AV Mobile BALTIMORE DOWNTOWN
KMTNFAA ID MTN, AWOS-3, KMTN 060851Z AUTO 31003KT 10SM CLR M08/M14 A3051 RMK AO2 Follow KMTN on AV Mobile Baltimore / Martin 410-682-8848
KBWIFAA ID BWI, ASOS, KBWI 060754Z 31006KT 10SM CLR M10/M16 A3048 Follow KBWI on AV Mobile BALTIMORE-WASHINGTON INTERNATIONAL 410-691-1278
4MDFAA ID 4MD, Belfort PIER 7
KCGEFAA ID CGE, AWOS-3, KCGE 060847Z AUTO 34009KT 10SM CLR M05/M12 A3046 RMK AO1 Follow KCGE on AV Mobile CAMBRIDGE 120.675 410-228-7559
KADWFAA ID ADW, KADW 060758Z AUTO 33008KT 10SM CLR M09/M15 A3046 RMK AO2 SNB0658 SLP326 P0000 T10921155 $ Follow KADW on AV Mobile Camp Springs / Andrews Air Force Base
W32FAA ID W32, Belfort WASHINGTON EXECUTIVE/HYDE FIELD
KCGSFAA ID CGS, AWOS-3, KCGS 060845Z AUTO 34004KT 10SM CLR M08/M15 A3049 RMK AO1 Follow KCGS on AV Mobile COLLEGE PARK 121.225 301-864-5497
K66WICAO ID K66W Cove Point Coast Guard Light Station
KCBEFAA ID CBE, AWOS-3, KCBE 060847Z AUTO 33004KT 10SM CLR M11/M18 A3054 Follow KCBE on AV Mobile Cumberland, Greater Cumberland Regional Airport 128.625 304-738-0451
KESNFAA ID ESN, AWOS-3, KESN 060902Z AUTO 03005KT 10SM CLR M09/M13 A3051 RMK AO2 T10891135 Follow KESN on AV Mobile Easton / Newman Field 124.475 410-822-2817
KFMEFAA ID FME, AWOS-3, KFME 060845Z AUTO 00000KT 10SM CLR M11/M15 A3052 RMK AO1 Follow KFME on AV Mobile Fort Meade / Tipton 123.925
KJWXICAO ID KJWX Fort Ritchie
KFDKFAA ID FDK, AWOS-3, KFDK 060845Z AUTO 35003KT 10SM CLR M12/M16 A3053 Follow KFDK on AV Mobile Frederick, Frederick Municipal Airport 124.875 301-600-1457
KGAIFAA ID GAI, AWOS-3, KGAI 060835Z AUTO 33004KT 10SM CLR M12/M18 A3050 RMK AO1 Follow KGAI on AV Mobile GAITHERSBURG 128.275 301-977-2971
KHGRFAA ID HGR, ASOS, KHGR 060753Z AUTO 00000KT 10SM CLR M13/M19 A3047 RMK AO2 SLP342 T11331194 Follow KHGR on AV Mobile HAGERSTOWN REGIONAL AIRPORT 126.375 301-745-3497
K2W6FAA ID 2W6, AWOS-3, K2W6 060846Z AUTO 00000KT 10SM CLR M07/M13 A3048 RMK AO1 Follow K2W6 on AV Mobile LEONARDTOWN 119.575 301-373-6514
K2G4FAA ID 2G4, AWOS-3, K2G4 060845Z AUTO 31005KT 10SM CLR M18/M18 A3027 RMK AO1 Follow K2G4 on AV Mobile OAKLAND 120.125 301-746-8443
KW30ICAO ID KW30 Ocean City
KN80ICAO ID KN80 Ocean City, Ocean City Municipal Airport
KOXBFAA ID OXB, ASOS, KOXB 060753Z AUTO 36010KT 10SM CLR M07/M12 A3042 RMK AO2 SLP299 T10671122 TSNO $ Follow KOXB on AV Mobile OCEAN CITY MUNICIPAL AIRPORT 119.025 410-213-1530
KNHKFAA ID NHK, KNHK 060852Z AUTO 34015KT 10SM CLR M08/M14 A3047 RMK AO2 SLP317 T10781144 51014 Follow KNHK on AV Mobile NAS PATUXENT RIVER MD
KSBYFAA ID SBY, ASOS, KSBY 060754Z AUTO 34010KT 10SM CLR M06/M12 A3043 Follow KSBY on AV Mobile SALISBURY-WICOMICO CTY REG 118.325 410-341-0868
KNUIFAA ID NUI, KNUI 060753Z AUTO VRB05KT 10SM CLR M06/M12 A3045 RMK AO2 SLP310 T10611122 Follow KNUI on AV Mobile KNUI WEBSTER FIELD ANNEX
KW29FAA ID W29, AWOS-3, KW29 060846Z AUTO 35010G15KT 10SM M07/M15 A3049 RMK AO1 Follow KW29 on AV Mobile STEVENSVILLE 120.575 410-643-8795
K67WICAO ID K67W Stillpond Coast Guard Station
K65WICAO ID K65W Thomas Point Coast Guard Station
KDMWFAA ID DMW, AWOS-3, KDMW 060845Z AUTO 32007KT 10SM SCT085 M13/M18 A3043 RMK AO2 Follow KDMW on AV Mobile WESTMINSTER 121.25 410-876-1281

Click on the AV Mobile icon AV Mobile icon by any station to follow that AWOS feed on AirportView.net Mobile.

Garmin aera 796 $1999 at Avionics Specialists LLC
Bose A20 Aviation Headsets $995 at Avionics Specialists LLC